createdAt,value
2018-07-03T00:00:47.657Z,99.90
2018-07-03T00:03:16.652Z,99.90
2018-07-03T00:05:45.726Z,99.90
2018-07-03T00:08:14.720Z,99.90
2018-07-03T00:10:43.774Z,99.90
2018-07-03T00:13:13.018Z,99.90
2018-07-03T00:15:42.998Z,99.90
2018-07-03T00:18:12.150Z,99.90
2018-07-03T00:20:41.195Z,99.90
2018-07-03T00:23:10.238Z,99.90
2018-07-03T00:25:39.314Z,99.90
2018-07-03T00:28:10.444Z,99.90
2018-07-03T00:30:39.476Z,99.90
2018-07-03T00:33:08.663Z,99.90
2018-07-03T00:35:37.673Z,99.90
2018-07-03T00:38:06.723Z,99.90
2018-07-03T00:40:35.744Z,99.90
2018-07-03T00:43:04.815Z,99.90
2018-07-03T00:45:33.854Z,99.90
2018-07-03T00:48:02.968Z,99.90
2018-07-03T00:50:31.999Z,99.90
2018-07-03T00:53:00.990Z,99.90
2018-07-03T00:55:30.054Z,99.90
2018-07-03T00:57:59.064Z,99.90
2018-07-03T01:00:34.487Z,99.90
2018-07-03T01:03:04.360Z,99.90
2018-07-03T01:05:33.787Z,99.90
2018-07-03T01:08:02.779Z,99.90
2018-07-03T01:10:31.755Z,99.90
2018-07-03T01:13:00.781Z,99.90
2018-07-03T01:15:29.814Z,99.90
2018-07-03T01:20:27.366Z,99.90
2018-07-03T01:22:56.584Z,99.90
2018-07-03T01:30:23.083Z,99.90
2018-07-03T01:32:52.078Z,99.90
2018-07-03T01:35:21.114Z,99.90
2018-07-03T01:37:50.108Z,99.90
2018-07-03T01:40:19.225Z,99.90
2018-07-03T01:42:48.292Z,99.90
2018-07-03T01:45:17.286Z,99.90
2018-07-03T01:47:46.319Z,99.90
2018-07-03T01:50:15.307Z,99.90
2018-07-03T01:52:44.336Z,99.90
2018-07-03T01:55:13.352Z,99.90
2018-07-03T01:57:42.366Z,99.90
2018-07-03T02:00:11.380Z,99.90
2018-07-03T02:02:40.350Z,99.90
2018-07-03T02:05:09.364Z,99.90
2018-07-03T02:07:38.376Z,99.90
2018-07-03T02:10:07.421Z,99.90
2018-07-03T02:12:36.430Z,99.90
2018-07-03T02:15:05.474Z,99.90
2018-07-03T02:17:34.495Z,99.90
2018-07-03T02:20:03.593Z,99.90
2018-07-03T02:22:32.626Z,99.90
2018-07-03T02:25:01.624Z,99.90
2018-07-03T02:27:30.659Z,99.90
2018-07-03T02:29:59.635Z,99.90
2018-07-03T02:32:28.693Z,99.90
2018-07-03T02:34:57.703Z,99.90
2018-07-03T02:37:26.698Z,99.90
2018-07-03T02:39:55.757Z,99.90
2018-07-03T02:42:24.807Z,99.90
2018-07-03T02:44:53.855Z,99.90
2018-07-03T02:47:22.860Z,99.90
2018-07-03T02:49:51.898Z,99.90
2018-07-03T02:52:20.925Z,99.90
2018-07-03T02:54:49.952Z,99.90
2018-07-03T02:57:19.035Z,99.90
2018-07-03T02:59:48.026Z,99.90
2018-07-03T03:02:17.061Z,99.90
2018-07-03T03:04:46.056Z,99.90
2018-07-03T03:07:15.096Z,99.90
2018-07-03T03:09:44.124Z,99.90
2018-07-03T03:12:13.108Z,99.90
2018-07-03T03:14:42.159Z,99.90
2018-07-03T03:17:11.295Z,99.90
2018-07-03T03:19:40.332Z,99.90
2018-07-03T03:22:09.380Z,99.90
2018-07-03T03:24:38.515Z,99.90
2018-07-03T03:27:07.554Z,99.90
2018-07-03T03:29:36.583Z,99.90
2018-07-03T03:32:05.636Z,99.90
2018-07-03T03:34:34.671Z,99.90
2018-07-03T03:37:03.742Z,99.90
2018-07-03T03:39:32.780Z,99.90
2018-07-03T03:42:01.857Z,99.90
2018-07-03T03:44:30.849Z,99.90
2018-07-03T03:46:59.861Z,99.90
2018-07-03T03:49:28.863Z,99.90
2018-07-03T03:51:58.711Z,99.90
2018-07-03T03:54:27.746Z,99.90
2018-07-03T03:56:56.746Z,99.90
2018-07-03T03:59:25.767Z,99.90
2018-07-03T04:01:54.807Z,99.90
2018-07-03T04:04:24.263Z,99.90
2018-07-03T04:06:53.519Z,99.90
2018-07-03T04:09:22.550Z,99.90
2018-07-03T04:11:51.751Z,99.90
2018-07-03T04:14:20.779Z,99.90
2018-07-03T04:16:49.770Z,99.90
2018-07-03T04:19:18.794Z,99.90
2018-07-03T04:21:47.799Z,99.90
2018-07-03T04:24:16.815Z,99.90
2018-07-03T04:26:45.863Z,99.90
2018-07-03T04:29:14.898Z,99.90
2018-07-03T04:31:43.920Z,99.90
2018-07-03T04:34:12.944Z,99.90
2018-07-03T04:36:41.971Z,99.90
2018-07-03T04:39:11.315Z,99.90
2018-07-03T04:41:40.384Z,99.90
2018-07-03T04:44:09.410Z,99.90
2018-07-03T04:46:38.948Z,99.90
2018-07-03T04:49:08.007Z,99.90
2018-07-03T04:51:36.991Z,99.90
2018-07-03T04:54:06.049Z,99.90
2018-07-03T04:56:35.073Z,99.90
2018-07-03T04:59:04.100Z,99.90
2018-07-03T05:01:33.121Z,99.90
2018-07-03T05:04:02.155Z,99.90
2018-07-03T05:08:59.774Z,99.90
2018-07-03T05:11:29.176Z,99.90
2018-07-03T05:13:58.195Z,99.90
2018-07-03T05:16:27.220Z,99.90
2018-07-03T05:18:56.232Z,99.90
2018-07-03T05:21:25.271Z,99.90
2018-07-03T05:23:54.336Z,99.90
2018-07-03T05:26:23.348Z,99.90
2018-07-03T05:28:52.406Z,99.90
2018-07-03T05:31:21.423Z,99.90
2018-07-03T05:33:50.447Z,99.90
2018-07-03T05:36:19.474Z,99.90
2018-07-03T05:38:48.487Z,99.90
2018-07-03T05:41:17.647Z,99.90
2018-07-03T05:43:46.687Z,99.90
2018-07-03T05:46:15.765Z,99.90
2018-07-03T05:48:44.803Z,99.90
2018-07-03T05:53:42.465Z,99.90
2018-07-03T05:56:11.511Z,99.90
2018-07-03T05:58:41.421Z,99.90
2018-07-03T06:01:10.469Z,99.90
2018-07-03T06:03:39.542Z,99.90
2018-07-03T06:06:08.659Z,99.90
2018-07-03T06:08:37.734Z,99.90
2018-07-03T06:11:06.805Z,99.90
2018-07-03T06:13:35.855Z,99.90
2018-07-03T06:16:04.938Z,99.90
2018-07-03T06:18:33.930Z,99.90
2018-07-03T06:21:03.275Z,99.90
2018-07-03T06:23:32.290Z,99.90
2018-07-03T06:26:01.337Z,99.90
2018-07-03T06:28:30.367Z,99.90
2018-07-03T06:30:59.430Z,99.90
2018-07-03T06:33:28.477Z,99.90
2018-07-03T06:35:57.754Z,99.90
2018-07-03T06:38:26.609Z,99.90
2018-07-03T06:40:55.706Z,99.90
2018-07-03T06:43:24.829Z,99.90
2018-07-03T06:45:53.884Z,99.90
2018-07-03T06:48:22.904Z,99.90
2018-07-03T06:50:51.927Z,99.90
2018-07-03T06:53:20.946Z,99.90
2018-07-03T06:55:50.066Z,99.90
2018-07-03T06:58:19.101Z,99.90
2018-07-03T07:00:48.126Z,99.90
2018-07-03T07:03:17.172Z,99.90
2018-07-03T07:05:46.207Z,99.90
2018-07-03T07:08:15.234Z,99.90
2018-07-03T07:10:44.233Z,99.90
2018-07-03T07:13:13.266Z,99.90
2018-07-03T07:15:42.691Z,99.90
2018-07-03T07:18:11.738Z,99.90
2018-07-03T07:20:40.924Z,99.90
2018-07-03T07:23:10.011Z,99.90
2018-07-03T07:25:39.036Z,99.90
2018-07-03T07:28:08.082Z,99.90
2018-07-03T07:30:37.126Z,99.90
2018-07-03T07:33:06.338Z,99.90
2018-07-03T07:35:35.380Z,99.90
2018-07-03T07:38:04.495Z,99.90
2018-07-03T07:40:33.490Z,99.90
2018-07-03T07:43:02.540Z,99.90
2018-07-03T07:45:31.568Z,99.90
2018-07-03T07:48:00.669Z,99.90
2018-07-03T07:50:29.627Z,99.90
2018-07-03T07:52:58.671Z,99.90
2018-07-03T07:55:27.775Z,99.90
2018-07-03T07:57:56.779Z,99.90
2018-07-03T08:00:25.827Z,99.90
2018-07-03T08:02:54.859Z,99.90
2018-07-03T08:05:23.896Z,99.90
2018-07-03T08:07:52.898Z,99.90
2018-07-03T08:10:21.944Z,99.90
2018-07-03T08:12:51.032Z,99.90
2018-07-03T08:15:20.079Z,99.90
2018-07-03T08:17:49.095Z,95.80
2018-07-03T08:20:18.102Z,91.20
2018-07-03T08:22:47.142Z,90.00
2018-07-03T08:25:16.163Z,90.30
2018-07-03T08:27:45.174Z,88.10
2018-07-03T08:30:14.175Z,86.80
2018-07-03T08:32:43.243Z,87.00
2018-07-03T08:35:12.303Z,85.30
2018-07-03T08:37:41.355Z,88.70
2018-07-03T08:40:10.408Z,86.80
2018-07-03T08:42:39.437Z,88.80
2018-07-03T08:45:08.886Z,85.40
2018-07-03T08:47:38.046Z,82.30
2018-07-03T08:50:07.128Z,76.70
2018-07-03T08:52:36.135Z,72.20
2018-07-03T08:55:05.312Z,71.10
2018-07-03T08:57:34.395Z,70.40
2018-07-03T09:02:31.977Z,73.90
2018-07-03T09:05:01.175Z,71.70
2018-07-03T09:07:30.188Z,73.10
2018-07-03T09:09:59.236Z,70.90
2018-07-03T09:12:28.287Z,73.20
2018-07-03T09:14:57.339Z,74.80
2018-07-03T09:17:29.327Z,78.20
2018-07-03T09:19:59.454Z,74.00
2018-07-03T09:22:28.464Z,76.20
2018-07-03T09:24:57.506Z,74.60
2018-07-03T09:27:26.582Z,74.90
2018-07-03T09:29:55.702Z,73.20
2018-07-03T09:32:24.948Z,70.30
2018-07-03T09:34:53.997Z,70.70
2018-07-03T09:37:23.099Z,67.10
2018-07-03T09:39:52.102Z,62.80
2018-07-03T09:42:21.170Z,66.70
2018-07-03T09:44:50.207Z,64.50
2018-07-03T09:47:19.259Z,60.80
2018-07-03T09:49:48.267Z,62.10
2018-07-03T09:52:17.283Z,60.60
2018-07-03T09:54:46.386Z,58.90
2018-07-03T09:57:15.395Z,60.80
2018-07-03T09:59:44.405Z,59.40
2018-07-03T10:02:13.415Z,61.00
2018-07-03T10:04:42.427Z,57.80
2018-07-03T10:07:11.422Z,56.50
2018-07-03T10:09:40.429Z,55.10
2018-07-03T10:12:09.479Z,56.70
2018-07-03T10:14:38.532Z,57.80
2018-07-03T10:17:09.744Z,56.30
2018-07-03T10:19:39.364Z,56.30
2018-07-03T10:22:08.469Z,56.40
2018-07-03T10:24:37.475Z,56.10
2018-07-03T10:27:06.553Z,55.60
2018-07-03T10:29:35.791Z,55.70
2018-07-03T10:32:04.975Z,57.10
2018-07-03T10:34:34.066Z,60.00
2018-07-03T10:37:03.062Z,56.70
2018-07-03T10:39:32.096Z,56.30
2018-07-03T10:42:01.963Z,56.80
2018-07-03T10:44:30.985Z,56.30
2018-07-03T10:47:00.002Z,55.20
2018-07-03T10:49:29.029Z,55.70
2018-07-03T10:51:58.139Z,52.30
2018-07-03T10:54:27.269Z,54.10
2018-07-03T10:56:56.302Z,54.10
2018-07-03T10:59:25.295Z,57.40
2018-07-03T11:01:54.314Z,57.10
2018-07-03T11:06:51.874Z,54.80
2018-07-03T11:09:20.895Z,53.00
2018-07-03T11:11:49.928Z,54.40
2018-07-03T11:14:18.953Z,55.70
2018-07-03T11:16:47.966Z,55.20
2018-07-03T11:21:45.571Z,54.40
2018-07-03T11:24:14.712Z,55.60
2018-07-03T11:26:43.730Z,54.90
2018-07-03T11:29:12.758Z,53.90
2018-07-03T11:31:41.735Z,53.60
2018-07-03T11:34:10.783Z,53.70
2018-07-03T11:39:09.852Z,55.00
2018-07-03T11:41:38.892Z,56.70
2018-07-03T11:44:07.964Z,54.90
2018-07-03T11:46:36.986Z,52.90
2018-07-03T11:49:06.035Z,53.60
2018-07-03T11:51:35.051Z,55.70
2018-07-03T11:54:04.093Z,53.90
2018-07-03T11:56:33.135Z,52.80
2018-07-03T11:59:02.185Z,53.50
2018-07-03T12:01:31.391Z,54.30
2018-07-03T12:04:00.372Z,53.30
2018-07-03T12:06:29.466Z,53.70
2018-07-03T12:08:58.531Z,55.00
2018-07-03T12:11:27.562Z,54.50
2018-07-03T12:13:56.571Z,52.10
2018-07-03T12:16:25.586Z,54.80
2018-07-03T12:19:00.543Z,54.60
2018-07-03T12:21:30.005Z,58.30
2018-07-03T12:23:59.446Z,56.50
2018-07-03T12:26:28.512Z,57.50
2018-07-03T12:31:26.191Z,56.60
2018-07-03T12:33:55.274Z,56.10
2018-07-03T12:36:24.364Z,55.30
2018-07-03T12:38:53.471Z,56.30
2018-07-03T12:41:22.481Z,54.60
2018-07-03T12:43:51.626Z,56.50
2018-07-03T12:46:20.659Z,55.60
2018-07-03T12:48:49.714Z,55.50
2018-07-03T12:51:18.716Z,54.60
2018-07-03T12:53:47.735Z,55.20
2018-07-03T12:56:16.747Z,54.40
2018-07-03T12:58:45.776Z,55.60
2018-07-03T13:01:14.795Z,55.00
2018-07-03T13:03:43.902Z,56.30
2018-07-03T13:06:12.915Z,55.10
2018-07-03T13:08:41.976Z,54.40
2018-07-03T13:11:10.984Z,56.50
2018-07-03T13:13:40.011Z,56.40
2018-07-03T13:16:09.057Z,57.80
2018-07-03T13:18:38.060Z,59.10
2018-07-03T13:21:07.248Z,58.00
2018-07-03T13:23:36.266Z,58.10
2018-07-03T13:26:05.762Z,58.80
2018-07-03T13:28:34.808Z,56.20
2018-07-03T13:31:03.816Z,57.90
2018-07-03T13:33:32.822Z,58.00
2018-07-03T13:36:01.894Z,58.80
2018-07-03T13:38:30.936Z,60.40
2018-07-03T13:41:00.014Z,61.40
2018-07-03T13:43:29.042Z,60.60
2018-07-03T13:45:58.062Z,58.80
2018-07-03T13:48:27.142Z,60.10
2018-07-03T13:50:56.455Z,59.60
2018-07-03T13:53:25.541Z,61.80
2018-07-03T13:55:54.566Z,59.50
2018-07-03T13:58:23.608Z,59.10
2018-07-03T14:00:52.663Z,60.40
2018-07-03T14:03:21.682Z,60.20
2018-07-03T14:05:50.731Z,61.00
2018-07-03T14:08:19.750Z,64.90
2018-07-03T14:10:48.819Z,58.60
2018-07-03T14:13:18.411Z,61.10
2018-07-03T14:15:47.450Z,59.90
2018-07-03T14:18:19.689Z,62.10
2018-07-03T14:20:48.703Z,61.80
2018-07-03T14:23:17.740Z,59.70
2018-07-03T14:25:46.766Z,62.10
2018-07-03T14:28:15.786Z,61.10
2018-07-03T14:30:44.806Z,61.20
2018-07-03T14:33:13.847Z,62.50
2018-07-03T14:35:43.508Z,61.50
2018-07-03T14:38:12.562Z,61.10
2018-07-03T14:40:41.681Z,62.30
2018-07-03T14:43:10.872Z,63.60
2018-07-03T14:45:40.007Z,62.90
2018-07-03T14:48:09.653Z,61.10
2018-07-03T14:50:38.705Z,62.30
2018-07-03T14:53:07.796Z,63.70
2018-07-03T14:55:36.811Z,64.60
2018-07-03T14:58:06.092Z,63.40
2018-07-03T15:00:35.103Z,65.30
2018-07-03T15:03:04.196Z,66.30
2018-07-03T15:05:33.196Z,67.80
2018-07-03T15:08:02.273Z,69.20
2018-07-03T15:10:31.315Z,69.60
2018-07-03T15:13:00.424Z,71.10
2018-07-03T15:15:29.482Z,72.80
2018-07-03T15:17:58.541Z,74.80
2018-07-03T15:20:27.633Z,77.70
2018-07-03T15:22:56.624Z,80.80
2018-07-03T15:25:25.699Z,82.70
2018-07-03T15:27:54.717Z,86.20
2018-07-03T15:30:23.761Z,88.20
2018-07-03T15:32:52.804Z,90.20
2018-07-03T15:37:50.382Z,91.70
2018-07-03T15:40:19.448Z,92.10
2018-07-03T15:42:48.471Z,91.70
2018-07-03T15:47:46.210Z,93.00
2018-07-03T15:50:15.434Z,93.70
2018-07-03T15:52:44.493Z,95.30
2018-07-03T15:55:13.472Z,94.90
2018-07-03T15:57:42.503Z,94.70
2018-07-03T16:00:14.783Z,95.00
2018-07-03T16:03:58.126Z,96.00
2018-07-03T16:06:38.262Z,96.50
2018-07-03T16:09:12.311Z,96.80
2018-07-03T16:11:41.395Z,97.30
2018-07-03T16:14:11.329Z,96.90
2018-07-03T16:16:40.779Z,97.40
2018-07-03T16:19:14.949Z,97.20
2018-07-03T16:21:44.086Z,97.70
2018-07-03T16:26:42.221Z,98.10
2018-07-03T16:29:12.462Z,99.10
2018-07-03T16:31:41.937Z,99.20
2018-07-03T16:34:10.950Z,98.90
2018-07-03T16:36:40.038Z,99.30
2018-07-03T16:39:12.238Z,99.50
2018-07-03T16:41:41.348Z,99.50
2018-07-03T16:44:10.867Z,99.70
2018-07-03T16:46:39.963Z,99.90
2018-07-03T16:49:09.013Z,99.90
2018-07-03T16:51:38.671Z,99.90
2018-07-03T16:54:07.844Z,99.90
2018-07-03T16:56:36.866Z,99.90
2018-07-03T16:59:05.973Z,99.90
2018-07-03T17:01:34.965Z,99.90
2018-07-03T17:04:04.026Z,99.90
2018-07-03T17:06:33.076Z,99.90
2018-07-03T17:09:02.086Z,99.90
2018-07-03T17:11:31.087Z,99.90
2018-07-03T17:14:00.144Z,99.90
2018-07-03T17:16:29.230Z,99.90
2018-07-03T17:19:03.338Z,99.90
2018-07-03T17:21:32.404Z,99.90
2018-07-03T17:24:01.412Z,99.90
2018-07-03T17:26:30.490Z,99.90
2018-07-03T17:28:59.549Z,99.50
2018-07-03T17:31:28.645Z,99.80
2018-07-03T17:33:57.726Z,99.70
2018-07-03T17:36:26.734Z,99.30
2018-07-03T17:38:55.751Z,99.20
2018-07-03T17:41:35.758Z,99.50
2018-07-03T17:45:20.113Z,99.80
2018-07-03T17:47:49.543Z,99.90
2018-07-03T17:50:20.122Z,99.20
2018-07-03T17:52:50.028Z,99.00
2018-07-03T17:55:19.234Z,99.40
2018-07-03T17:57:48.820Z,99.50
2018-07-03T18:00:18.284Z,99.60
2018-07-03T18:02:47.724Z,99.80
2018-07-03T18:05:17.188Z,99.90
2018-07-03T18:07:46.644Z,99.90
2018-07-03T18:10:16.192Z,99.90
2018-07-03T18:12:45.495Z,99.90
2018-07-03T18:15:14.904Z,99.90
2018-07-03T18:17:44.525Z,99.90
2018-07-03T18:20:13.704Z,99.90
2018-07-03T18:22:43.369Z,99.90
2018-07-03T18:25:12.776Z,99.90
2018-07-03T18:27:42.022Z,99.90
2018-07-03T18:30:12.913Z,99.90
2018-07-03T18:32:42.362Z,99.90
2018-07-03T18:35:11.540Z,99.90
2018-07-03T18:37:40.758Z,99.90
2018-07-03T18:40:10.544Z,99.90
2018-07-03T18:42:39.694Z,99.90
2018-07-03T18:45:08.958Z,99.90
2018-07-03T18:47:38.140Z,99.90
2018-07-03T18:50:07.557Z,99.90
2018-07-03T18:52:36.826Z,99.90
2018-07-03T18:55:06.404Z,99.90
2018-07-03T18:57:35.761Z,99.90
2018-07-03T19:00:05.639Z,99.90
2018-07-03T19:02:34.847Z,99.90
2018-07-03T19:05:04.136Z,99.90
2018-07-03T19:07:33.417Z,99.90
2018-07-03T19:10:02.640Z,99.90
2018-07-03T19:12:31.768Z,99.90
2018-07-03T19:15:01.081Z,99.90
2018-07-03T19:17:30.265Z,99.90
2018-07-03T19:19:59.483Z,99.90
2018-07-03T19:22:28.668Z,99.90
2018-07-03T19:24:57.844Z,99.90
2018-07-03T19:27:27.038Z,99.90
2018-07-03T19:29:56.351Z,99.90
2018-07-03T19:32:26.241Z,99.90
2018-07-03T19:34:55.526Z,99.90
2018-07-03T19:37:24.732Z,99.90
2018-07-03T19:39:54.106Z,99.90
2018-07-03T19:42:23.424Z,99.90
2018-07-03T19:44:52.647Z,99.90
2018-07-03T19:47:21.935Z,99.90
2018-07-03T19:49:51.122Z,99.90
2018-07-03T19:52:20.340Z,99.90
2018-07-03T19:54:49.465Z,99.90
2018-07-03T19:57:18.719Z,99.90
2018-07-03T19:59:48.052Z,99.90
2018-07-03T20:02:17.233Z,99.90
2018-07-03T20:04:46.414Z,99.90
2018-07-03T20:07:15.540Z,99.90
2018-07-03T20:09:44.886Z,99.90
2018-07-03T20:12:14.319Z,99.90
2018-07-03T20:14:43.444Z,99.90
2018-07-03T20:17:12.523Z,99.90
2018-07-03T20:19:41.553Z,99.90
2018-07-03T20:22:10.618Z,99.90
2018-07-03T20:24:39.607Z,99.90
2018-07-03T20:27:08.653Z,99.90
2018-07-03T20:29:37.656Z,99.90
2018-07-03T20:32:06.702Z,99.90
2018-07-03T20:34:35.779Z,99.90
2018-07-03T20:37:05.244Z,99.90
2018-07-03T20:39:34.998Z,99.90
2018-07-03T20:42:04.374Z,99.90
2018-07-03T20:44:34.675Z,99.90
2018-07-03T20:47:04.924Z,99.90
2018-07-03T20:49:34.738Z,99.90
2018-07-03T20:52:04.402Z,99.90
2018-07-03T20:54:35.576Z,99.90
2018-07-03T20:57:06.240Z,99.90
2018-07-03T20:59:36.424Z,99.90
2018-07-03T21:02:08.779Z,99.90
2018-07-03T21:04:38.504Z,99.90
2018-07-03T21:07:07.818Z,99.90
2018-07-03T21:09:37.509Z,99.90
2018-07-03T21:12:07.147Z,99.90
2018-07-03T21:14:36.466Z,99.90
2018-07-03T21:17:05.904Z,99.90
2018-07-03T21:19:35.234Z,99.90
2018-07-03T21:22:06.112Z,99.90
2018-07-03T21:24:35.893Z,99.90
2018-07-03T21:27:05.874Z,99.90
2018-07-03T21:29:36.313Z,99.90
2018-07-03T21:32:06.039Z,99.90
2018-07-03T21:34:35.298Z,99.90
2018-07-03T21:37:05.762Z,99.90
2018-07-03T21:39:36.216Z,99.90
2018-07-03T21:42:05.718Z,99.90
2018-07-03T21:44:36.022Z,99.90
2018-07-03T21:47:05.588Z,99.90
2018-07-03T21:49:36.080Z,99.90
2018-07-03T21:52:05.896Z,99.90
2018-07-03T21:54:35.402Z,99.90
2018-07-03T21:57:05.367Z,99.90
2018-07-03T21:59:35.867Z,99.90
2018-07-03T22:02:06.424Z,99.90
2018-07-03T22:04:36.519Z,99.90
2018-07-03T22:07:06.415Z,99.90
2018-07-03T22:09:36.618Z,99.90
2018-07-03T22:12:06.148Z,99.90
2018-07-03T22:14:39.427Z,99.90
2018-07-03T22:17:09.154Z,99.90
2018-07-03T22:19:38.195Z,99.90
2018-07-03T22:22:07.416Z,99.90
2018-07-03T22:24:36.362Z,99.90
2018-07-03T22:27:05.567Z,99.90
2018-07-03T22:29:34.583Z,99.90
2018-07-03T22:32:03.639Z,99.90
2018-07-03T22:34:32.644Z,99.90
2018-07-03T22:37:01.658Z,99.90
2018-07-03T22:39:30.738Z,99.90
2018-07-03T22:41:59.826Z,99.90
2018-07-03T22:44:28.864Z,99.90
2018-07-03T22:46:57.935Z,99.90
2018-07-03T22:49:26.996Z,99.90
2018-07-03T22:51:56.016Z,99.90
2018-07-03T22:54:25.083Z,99.90
2018-07-03T22:56:54.067Z,99.90
2018-07-03T22:59:23.087Z,99.90
2018-07-03T23:01:52.138Z,99.90
2018-07-03T23:04:21.204Z,99.90
2018-07-03T23:06:50.243Z,99.90
2018-07-03T23:09:19.232Z,99.90
2018-07-03T23:11:48.279Z,99.90
2018-07-03T23:14:17.250Z,99.90
2018-07-03T23:16:46.313Z,99.90
2018-07-03T23:19:15.300Z,99.90
2018-07-03T23:21:44.326Z,99.90
2018-07-03T23:24:13.563Z,99.90
2018-07-03T23:26:42.611Z,99.90
2018-07-03T23:29:11.614Z,99.90
2018-07-03T23:31:40.636Z,99.90
2018-07-03T23:34:09.867Z,99.90
2018-07-03T23:36:38.887Z,99.90
2018-07-03T23:39:09.566Z,99.90
2018-07-03T23:41:38.583Z,99.90
2018-07-03T23:44:07.608Z,99.90
2018-07-03T23:46:47.724Z,99.90
2018-07-03T23:52:01.923Z,99.90
2018-07-03T23:54:41.954Z,99.90
2018-07-03T23:57:21.893Z,99.90
